sensor_id;sensor_type;location;lat;lon;timestamp;pressure;altitude;pressure_sealevel;temperature;humidity
32638;BME280;19045;52.268;10.506;2023-01-10T00:00:41;99873.09;;;6.00;100.00
32638;BME280;19045;52.268;10.506;2023-01-10T00:03:09;99868.91;;;6.04;100.00
32638;BME280;19045;52.268;10.506;2023-01-10T00:05:38;99876.81;;;5.99;100.00
32638;BME280;19045;52.268;10.506;2023-01-10T00:08:06;99886.84;;;6.09;100.00
32638;BME280;19045;52.268;10.506;2023-01-10T00:10:33;99885.22;;;6.08;100.00
32638;BME280;19045;52.268;10.506;2023-01-10T00:13:00;99893.47;;;6.06;100.00
32638;BME280;19045;52.268;10.506;2023-01-10T00:15:44;99899.03;;;6.05;100.00
32638;BME280;19045;52.268;10.506;2023-01-10T00:18:11;99897.66;;;6.02;100.00
32638;BME280;19045;52.268;10.506;2023-01-10T00:20:39;99909.94;;;6.03;100.00
32638;BME280;19045;52.268;10.506;2023-01-10T00:23:06;99912.59;;;6.03;100.00
32638;BME280;19045;52.268;10.506;2023-01-10T00:25:32;99919.56;;;6.04;100.00
32638;BME280;19045;52.268;10.506;2023-01-10T00:28:00;99925.91;;;6.03;100.00
32638;BME280;19045;52.268;10.506;2023-01-10T00:30:36;99926.50;;;6.05;100.00
32638;BME280;19045;52.268;10.506;2023-01-10T00:33:04;99932.41;;;6.07;100.00
32638;BME280;19045;52.268;10.506;2023-01-10T00:35:32;99939.69;;;6.12;100.00
32638;BME280;19045;52.268;10.506;2023-01-10T00:38:00;99944.22;;;6.11;100.00
32638;BME280;19045;52.268;10.506;2023-01-10T00:40:30;99939.84;;;6.05;100.00
32638;BME280;19045;52.268;10.506;2023-01-10T00:42:56;99947.69;;;6.12;100.00
32638;BME280;19045;52.268;10.506;2023-01-10T00:45:43;99950.03;;;6.08;100.00
32638;BME280;19045;52.268;10.506;2023-01-10T00:48:09;99953.66;;;6.02;100.00
32638;BME280;19045;52.268;10.506;2023-01-10T00:50:36;99956.50;;;6.12;100.00
32638;BME280;19045;52.268;10.506;2023-01-10T00:53:04;99960.22;;;6.11;100.00
32638;BME280;19045;52.268;10.506;2023-01-10T00:55:31;99977.03;;;6.12;100.00
32638;BME280;19045;52.268;10.506;2023-01-10T00:57:59;99970.97;;;6.16;100.00
32638;BME280;19045;52.268;10.506;2023-01-10T01:00:25;99983.41;;;6.11;100.00
32638;BME280;19045;52.268;10.506;2023-01-10T01:02:52;99985.16;;;6.05;100.00
32638;BME280;19045;52.268;10.506;2023-01-10T01:05:19;99989.22;;;6.08;100.00
32638;BME280;19045;52.268;10.506;2023-01-10T01:07:47;99995.03;;;6.05;100.00
32638;BME280;19045;52.268;10.506;2023-01-10T01:10:15;99987.63;;;5.95;100.00
32638;BME280;19045;52.268;10.506;2023-01-10T01:12:58;99986.59;;;5.96;100.00
32638;BME280;19045;52.268;10.506;2023-01-10T01:15:26;99999.13;;;5.96;100.00
32638;BME280;19045;52.268;10.506;2023-01-10T01:17:53;100001.91;;;5.89;100.00
32638;BME280;19045;52.268;10.506;2023-01-10T01:20:20;100002.47;;;5.91;100.00
32638;BME280;19045;52.268;10.506;2023-01-10T01:22:47;100020.59;;;5.89;100.00
32638;BME280;19045;52.268;10.506;2023-01-10T01:25:15;100021.06;;;5.86;100.00
32638;BME280;19045;52.268;10.506;2023-01-10T01:27:42;100029.06;;;5.86;100.00
32638;BME280;19045;52.268;10.506;2023-01-10T01:30:12;100037.59;;;5.88;100.00
32638;BME280;19045;52.268;10.506;2023-01-10T01:32:39;100037.94;;;5.92;100.00
32638;BME280;19045;52.268;10.506;2023-01-10T01:35:09;100043.63;;;5.95;100.00
32638;BME280;19045;52.268;10.506;2023-01-10T01:37:37;100053.38;;;5.90;100.00
32638;BME280;19045;52.268;10.506;2023-01-10T01:40:05;100057.50;;;5.97;100.00
32638;BME280;19045;52.268;10.506;2023-01-10T01:42:34;100055.44;;;5.99;100.00
32638;BME280;19045;52.268;10.506;2023-01-10T01:45:31;100070.50;;;5.94;100.00
32638;BME280;19045;52.268;10.506;2023-01-10T01:48:02;100080.13;;;5.95;100.00
32638;BME280;19045;52.268;10.506;2023-01-10T01:50:34;100081.50;;;5.97;100.00
32638;BME280;19045;52.268;10.506;2023-01-10T01:53:08;100084.66;;;5.94;100.00
32638;BME280;19045;52.268;10.506;2023-01-10T01:55:36;100087.31;;;5.94;100.00
32638;BME280;19045;52.268;10.506;2023-01-10T01:58:12;100095.91;;;5.96;100.00
32638;BME280;19045;52.268;10.506;2023-01-10T02:00:40;100089.75;;;5.96;100.00
32638;BME280;19045;52.268;10.506;2023-01-10T02:03:07;100098.78;;;5.95;100.00
32638;BME280;19045;52.268;10.506;2023-01-10T02:05:36;100102.50;;;5.94;100.00
32638;BME280;19045;52.268;10.506;2023-01-10T02:08:04;100102.84;;;5.97;100.00
32638;BME280;19045;52.268;10.506;2023-01-10T02:10:35;100108.97;;;5.98;100.00
32638;BME280;19045;52.268;10.506;2023-01-10T02:13:07;100111.09;;;5.96;100.00
32638;BME280;19045;52.268;10.506;2023-01-10T02:15:34;100116.63;;;5.94;100.00
32638;BME280;19045;52.268;10.506;2023-01-10T02:18:01;100114.56;;;5.96;100.00
32638;BME280;19045;52.268;10.506;2023-01-10T02:20:31;100126.34;;;6.00;100.00
32638;BME280;19045;52.268;10.506;2023-01-10T02:23:25;100127.88;;;5.96;100.00
32638;BME280;19045;52.268;10.506;2023-01-10T02:32:21;100146.31;;;5.98;100.00
32638;BME280;19045;52.268;10.506;2023-01-10T02:35:01;100144.44;;;5.98;100.00
32638;BME280;19045;52.268;10.506;2023-01-10T02:37:39;100147.34;;;5.97;100.00
32638;BME280;19045;52.268;10.506;2023-01-10T02:40:13;100146.91;;;6.00;100.00
32638;BME280;19045;52.268;10.506;2023-01-10T02:42:48;100154.56;;;5.96;100.00
32638;BME280;19045;52.268;10.506;2023-01-10T02:45:23;100158.59;;;5.99;100.00
32638;BME280;19045;52.268;10.506;2023-01-10T02:47:55;100160.91;;;5.95;100.00
32638;BME280;19045;52.268;10.506;2023-01-10T02:50:28;100160.91;;;5.95;100.00
32638;BME280;19045;52.268;10.506;2023-01-10T02:52:56;100163.31;;;5.85;100.00
32638;BME280;19045;52.268;10.506;2023-01-10T02:55:30;100168.22;;;5.88;100.00
32638;BME280;19045;52.268;10.506;2023-01-10T02:58:04;100165.88;;;5.80;100.00
32638;BME280;19045;52.268;10.506;2023-01-10T03:00:42;100166.78;;;5.74;100.00
32638;BME280;19045;52.268;10.506;2023-01-10T03:03:22;100171.56;;;5.72;100.00
32638;BME280;19045;52.268;10.506;2023-01-10T03:06:03;100172.94;;;5.74;100.00
32638;BME280;19045;52.268;10.506;2023-01-10T03:08:34;100187.91;;;5.76;100.00
32638;BME280;19045;52.268;10.506;2023-01-10T03:11:04;100184.88;;;5.84;100.00
32638;BME280;19045;52.268;10.506;2023-01-10T03:13:36;100202.38;;;5.80;100.00
32638;BME280;19045;52.268;10.506;2023-01-10T03:16:07;100203.91;;;5.87;100.00
32638;BME280;19045;52.268;10.506;2023-01-10T03:18:40;100205.41;;;5.95;100.00
32638;BME280;19045;52.268;10.506;2023-01-10T03:21:09;100215.53;;;5.93;100.00
32638;BME280;19045;52.268;10.506;2023-01-10T03:23:37;100208.06;;;5.83;100.00
32638;BME280;19045;52.268;10.506;2023-01-10T03:26:06;100224.19;;;5.88;100.00
32638;BME280;19045;52.268;10.506;2023-01-10T03:28:40;100228.03;;;5.92;100.00
32638;BME280;19045;52.268;10.506;2023-01-10T03:31:12;100227.09;;;5.98;100.00
32638;BME280;19045;52.268;10.506;2023-01-10T03:33:41;100240.22;;;6.00;100.00
32638;BME280;19045;52.268;10.506;2023-01-10T03:36:14;100243.78;;;6.05;100.00
32638;BME280;19045;52.268;10.506;2023-01-10T03:38:50;100257.25;;;5.99;100.00
32638;BME280;19045;52.268;10.506;2023-01-10T03:41:23;100250.16;;;6.04;100.00
32638;BME280;19045;52.268;10.506;2023-01-10T03:44:03;100258.53;;;5.96;100.00
32638;BME280;19045;52.268;10.506;2023-01-10T03:46:53;100259.78;;;5.94;100.00
32638;BME280;19045;52.268;10.506;2023-01-10T03:49:25;100265.22;;;5.87;100.00
32638;BME280;19045;52.268;10.506;2023-01-10T03:51:53;100270.78;;;5.97;100.00
32638;BME280;19045;52.268;10.506;2023-01-10T03:54:20;100270.78;;;5.97;100.00
32638;BME280;19045;52.268;10.506;2023-01-10T03:56:48;100285.03;;;5.91;100.00
32638;BME280;19045;52.268;10.506;2023-01-10T03:59:15;100284.56;;;5.83;100.00
32638;BME280;19045;52.268;10.506;2023-01-10T04:01:42;100285.38;;;5.83;100.00
32638;BME280;19045;52.268;10.506;2023-01-10T04:04:12;100300.28;;;5.72;100.00
32638;BME280;19045;52.268;10.506;2023-01-10T04:06:40;100289.53;;;5.79;100.00
32638;BME280;19045;52.268;10.506;2023-01-10T04:09:08;100300.41;;;5.78;100.00
32638;BME280;19045;52.268;10.506;2023-01-10T04:11:35;100294.84;;;5.79;100.00
32638;BME280;19045;52.268;10.506;2023-01-10T04:14:01;100305.88;;;5.83;100.00
32638;BME280;19045;52.268;10.506;2023-01-10T04:16:28;100308.19;;;5.79;100.00
32638;BME280;19045;52.268;10.506;2023-01-10T04:18:55;100314.53;;;5.78;100.00
32638;BME280;19045;52.268;10.506;2023-01-10T04:21:21;100324.38;;;5.66;100.00
32638;BME280;19045;52.268;10.506;2023-01-10T04:23:49;100327.50;;;5.63;100.00
32638;BME280;19045;52.268;10.506;2023-01-10T04:26:16;100338.25;;;5.56;100.00
32638;BME280;19045;52.268;10.506;2023-01-10T04:28:43;100336.50;;;5.62;100.00
32638;BME280;19045;52.268;10.506;2023-01-10T04:31:09;100338.72;;;5.65;100.00
32638;BME280;19045;52.268;10.506;2023-01-10T04:33:36;100347.16;;;5.62;100.00
32638;BME280;19045;52.268;10.506;2023-01-10T04:36:03;100351.94;;;5.71;100.00
32638;BME280;19045;52.268;10.506;2023-01-10T04:38:30;100348.94;;;5.68;100.00
32638;BME280;19045;52.268;10.506;2023-01-10T04:40:58;100358.75;;;5.67;100.00
32638;BME280;19045;52.268;10.506;2023-01-10T04:43:25;100365.84;;;5.73;100.00
32638;BME280;19045;52.268;10.506;2023-01-10T04:45:51;100358.56;;;5.69;100.00
32638;BME280;19045;52.268;10.506;2023-01-10T04:48:18;100369.44;;;5.67;100.00
32638;BME280;19045;52.268;10.506;2023-01-10T04:50:48;100369.66;;;5.66;100.00
32638;BME280;19045;52.268;10.506;2023-01-10T04:53:15;100369.53;;;5.61;100.00
32638;BME280;19045;52.268;10.506;2023-01-10T04:55:41;100376.56;;;5.55;100.00
32638;BME280;19045;52.268;10.506;2023-01-10T04:58:09;100380.97;;;5.50;100.00
32638;BME280;19045;52.268;10.506;2023-01-10T05:00:36;100386.22;;;5.38;100.00
32638;BME280;19045;52.268;10.506;2023-01-10T05:03:03;100388.66;;;5.40;100.00
32638;BME280;19045;52.268;10.506;2023-01-10T05:05:30;100404.13;;;5.31;100.00
32638;BME280;19045;52.268;10.506;2023-01-10T05:07:57;100414.13;;;5.36;100.00
32638;BME280;19045;52.268;10.506;2023-01-10T05:10:24;100413.44;;;5.40;100.00
32638;BME280;19045;52.268;10.506;2023-01-10T05:12:50;100417.97;;;5.40;100.00
32638;BME280;19045;52.268;10.506;2023-01-10T05:15:18;100414.31;;;5.52;100.00
32638;BME280;19045;52.268;10.506;2023-01-10T05:17:47;100413.22;;;5.60;100.00
32638;BME280;19045;52.268;10.506;2023-01-10T05:20:15;100418.53;;;5.60;100.00
32638;BME280;19045;52.268;10.506;2023-01-10T05:22:42;100422.81;;;5.61;100.00
32638;BME280;19045;52.268;10.506;2023-01-10T05:25:10;100427.66;;;5.52;100.00
32638;BME280;19045;52.268;10.506;2023-01-10T05:27:39;100442.53;;;5.60;100.00
32638;BME280;19045;52.268;10.506;2023-01-10T05:30:09;100445.03;;;5.55;100.00
32638;BME280;19045;52.268;10.506;2023-01-10T05:32:37;100445.59;;;5.57;100.00
32638;BME280;19045;52.268;10.506;2023-01-10T05:35:04;100458.94;;;5.57;100.00
32638;BME280;19045;52.268;10.506;2023-01-10T05:37:31;100455.59;;;5.61;100.00
32638;BME280;19045;52.268;10.506;2023-01-10T05:39:58;100455.84;;;5.60;100.00
32638;BME280;19045;52.268;10.506;2023-01-10T05:42:24;100454.41;;;5.57;100.00
32638;BME280;19045;52.268;10.506;2023-01-10T05:44:51;100463.19;;;5.46;100.00
32638;BME280;19045;52.268;10.506;2023-01-10T05:47:18;100461.63;;;5.39;100.00
32638;BME280;19045;52.268;10.506;2023-01-10T05:49:46;100466.78;;;5.34;100.00
32638;BME280;19045;52.268;10.506;2023-01-10T05:52:13;100469.75;;;5.26;100.00
32638;BME280;19045;52.268;10.506;2023-01-10T05:54:40;100471.00;;;5.23;100.00
32638;BME280;19045;52.268;10.506;2023-01-10T05:57:06;100475.44;;;5.29;100.00
32638;BME280;19045;52.268;10.506;2023-01-10T05:59:33;100477.88;;;5.31;100.00
32638;BME280;19045;52.268;10.506;2023-01-10T06:01:59;100493.06;;;5.30;100.00
32638;BME280;19045;52.268;10.506;2023-01-10T06:04:26;100501.41;;;5.34;100.00
32638;BME280;19045;52.268;10.506;2023-01-10T06:06:54;100503.28;;;5.33;100.00
32638;BME280;19045;52.268;10.506;2023-01-10T06:09:21;100512.06;;;5.34;100.00
32638;BME280;19045;52.268;10.506;2023-01-10T06:11:47;100509.69;;;5.26;100.00
32638;BME280;19045;52.268;10.506;2023-01-10T06:14:14;100521.00;;;5.21;100.00
32638;BME280;19045;52.268;10.506;2023-01-10T06:16:43;100526.19;;;5.16;100.00
32638;BME280;19045;52.268;10.506;2023-01-10T06:19:10;100523.50;;;5.16;100.00
32638;BME280;19045;52.268;10.506;2023-01-10T06:21:37;100538.34;;;5.05;100.00
32638;BME280;19045;52.268;10.506;2023-01-10T06:24:06;100537.31;;;5.06;100.00
32638;BME280;19045;52.268;10.506;2023-01-10T06:26:32;100543.88;;;5.04;100.00
32638;BME280;19045;52.268;10.506;2023-01-10T06:28:59;100541.06;;;4.99;100.00
32638;BME280;19045;52.268;10.506;2023-01-10T06:31:26;100543.34;;;4.95;100.00
32638;BME280;19045;52.268;10.506;2023-01-10T06:33:53;100548.13;;;4.87;100.00
32638;BME280;19045;52.268;10.506;2023-01-10T06:36:19;100556.28;;;4.92;100.00
32638;BME280;19045;52.268;10.506;2023-01-10T06:38:46;100561.94;;;5.02;100.00
32638;BME280;19045;52.268;10.506;2023-01-10T06:41:14;100567.69;;;4.99;100.00
32638;BME280;19045;52.268;10.506;2023-01-10T06:43:41;100569.97;;;4.95;100.00
32638;BME280;19045;52.268;10.506;2023-01-10T06:46:09;100579.97;;;5.00;100.00
32638;BME280;19045;52.268;10.506;2023-01-10T06:48:36;100584.25;;;5.01;100.00
32638;BME280;19045;52.268;10.506;2023-01-10T06:51:04;100593.34;;;4.93;100.00
32638;BME280;19045;52.268;10.506;2023-01-10T06:53:31;100599.44;;;5.00;100.00
32638;BME280;19045;52.268;10.506;2023-01-10T06:55:58;100591.00;;;5.03;100.00
32638;BME280;19045;52.268;10.506;2023-01-10T06:58:26;100599.59;;;5.05;100.00
32638;BME280;19045;52.268;10.506;2023-01-10T07:00:52;100600.41;;;5.06;100.00
32638;BME280;19045;52.268;10.506;2023-01-10T07:03:19;100599.59;;;5.05;100.00
32638;BME280;19045;52.268;10.506;2023-01-10T07:05:46;100603.88;;;5.06;100.00
32638;BME280;19045;52.268;10.506;2023-01-10T07:08:13;100603.22;;;5.11;100.00
32638;BME280;19045;52.268;10.506;2023-01-10T07:10:39;100614.25;;;5.14;100.00
32638;BME280;19045;52.268;10.506;2023-01-10T07:13:07;100626.34;;;5.17;100.00
32638;BME280;19045;52.268;10.506;2023-01-10T07:15:35;100628.19;;;5.16;100.00
32638;BME280;19045;52.268;10.506;2023-01-10T07:18:02;100618.69;;;5.20;100.00
32638;BME280;19045;52.268;10.506;2023-01-10T07:20:28;100626.53;;;5.15;100.00
32638;BME280;19045;52.268;10.506;2023-01-10T07:22:56;100635.22;;;5.04;100.00
32638;BME280;19045;52.268;10.506;2023-01-10T07:25:24;100640.09;;;5.07;100.00
32638;BME280;19045;52.268;10.506;2023-01-10T07:27:51;100648.31;;;5.06;100.00
32638;BME280;19045;52.268;10.506;2023-01-10T07:30:19;100647.06;;;5.08;100.00
32638;BME280;19045;52.268;10.506;2023-01-10T07:32:53;100653.25;;;5.02;100.00
32638;BME280;19045;52.268;10.506;2023-01-10T07:35:20;100651.81;;;5.06;100.00
32638;BME280;19045;52.268;10.506;2023-01-10T07:37:46;100658.75;;;5.07;100.00
32638;BME280;19045;52.268;10.506;2023-01-10T07:40:13;100673.75;;;5.02;100.00
32638;BME280;19045;52.268;10.506;2023-01-10T07:42:40;100676.16;;;5.10;100.00
32638;BME280;19045;52.268;10.506;2023-01-10T07:45:07;100675.94;;;5.11;100.00
32638;BME280;19045;52.268;10.506;2023-01-10T07:47:34;100674.66;;;5.14;100.00
32638;BME280;19045;52.268;10.506;2023-01-10T07:50:02;100680.38;;;5.17;100.00
32638;BME280;19045;52.268;10.506;2023-01-10T07:52:29;100689.16;;;5.25;100.00
32638;BME280;19045;52.268;10.506;2023-01-10T07:54:55;100681.97;;;5.25;100.00
32638;BME280;19045;52.268;10.506;2023-01-10T07:57:22;100694.22;;;5.33;100.00
32638;BME280;19045;52.268;10.506;2023-01-10T07:59:49;100703.03;;;5.33;100.00
32638;BME280;19045;52.268;10.506;2023-01-10T08:02:15;100696.03;;;5.39;100.00
32638;BME280;19045;52.268;10.506;2023-01-10T08:04:42;100700.53;;;5.38;100.00
32638;BME280;19045;52.268;10.506;2023-01-10T08:07:10;100706.03;;;5.43;100.00
32638;BME280;19045;52.268;10.506;2023-01-10T08:09:36;100707.41;;;5.52;100.00
32638;BME280;19045;52.268;10.506;2023-01-10T08:12:03;100712.94;;;5.51;100.00
32638;BME280;19045;52.268;10.506;2023-01-10T08:14:30;100709.03;;;5.53;100.00
32638;BME280;19045;52.268;10.506;2023-01-10T08:16:56;100703.72;;;5.53;100.00
32638;BME280;19045;52.268;10.506;2023-01-10T08:19:23;100713.53;;;5.53;100.00
32638;BME280;19045;52.268;10.506;2023-01-10T08:21:50;100711.09;;;5.51;100.00
32638;BME280;19045;52.268;10.506;2023-01-10T08:24:17;100719.47;;;5.55;100.00
32638;BME280;19045;52.268;10.506;2023-01-10T08:26:44;100723.59;;;5.51;100.00
32638;BME280;19045;52.268;10.506;2023-01-10T08:29:11;100715.53;;;5.57;100.00
32638;BME280;19045;52.268;10.506;2023-01-10T08:31:39;100719.78;;;5.65;100.00
32638;BME280;19045;52.268;10.506;2023-01-10T08:34:06;100714.03;;;5.68;100.00
32638;BME280;19045;52.268;10.506;2023-01-10T08:36:33;100728.94;;;5.76;100.00
32638;BME280;19045;52.268;10.506;2023-01-10T08:38:59;100725.00;;;5.78;100.00
32638;BME280;19045;52.268;10.506;2023-01-10T08:41:27;100722.69;;;5.88;100.00
32638;BME280;19045;52.268;10.506;2023-01-10T08:43:55;100735.75;;;5.96;100.00
32638;BME280;19045;52.268;10.506;2023-01-10T08:46:22;100730.50;;;5.90;100.00
32638;BME280;19045;52.268;10.506;2023-01-10T08:48:49;100737.28;;;5.86;100.00
32638;BME280;19045;52.268;10.506;2023-01-10T08:51:16;100744.34;;;5.98;100.00
32638;BME280;19045;52.268;10.506;2023-01-10T08:53:43;100741.34;;;6.31;99.12
32638;BME280;19045;52.268;10.506;2023-01-10T08:56:09;100747.22;;;6.58;97.25
32638;BME280;19045;52.268;10.506;2023-01-10T08:58:38;100751.66;;;6.64;96.65
32638;BME280;19045;52.268;10.506;2023-01-10T09:01:05;100755.00;;;6.41;97.35
32638;BME280;19045;52.268;10.506;2023-01-10T09:03:32;100756.78;;;6.29;98.83
32638;BME280;19045;52.268;10.506;2023-01-10T09:05:59;100768.47;;;6.28;98.97
32638;BME280;19045;52.268;10.506;2023-01-10T09:08:26;100757.44;;;6.24;99.21
32638;BME280;19045;52.268;10.506;2023-01-10T09:10:53;100764.22;;;6.20;99.65
32638;BME280;19045;52.268;10.506;2023-01-10T09:13:19;100769.81;;;6.37;100.00
32638;BME280;19045;52.268;10.506;2023-01-10T09:15:50;100770.13;;;6.47;100.00
32638;BME280;19045;52.268;10.506;2023-01-10T09:18:17;100779.25;;;6.58;98.33
32638;BME280;19045;52.268;10.506;2023-01-10T09:20:43;100767.31;;;6.60;98.06
32638;BME280;19045;52.268;10.506;2023-01-10T09:23:12;100769.16;;;6.60;97.47
32638;BME280;19045;52.268;10.506;2023-01-10T09:25:41;100754.03;;;6.72;97.20
32638;BME280;19045;52.268;10.506;2023-01-10T09:28:08;100763.00;;;7.25;95.11
32638;BME280;19045;52.268;10.506;2023-01-10T09:30:35;100757.63;;;8.83;86.98
32638;BME280;19045;52.268;10.506;2023-01-10T09:33:04;100743.94;;;10.03;77.69
32638;BME280;19045;52.268;10.506;2023-01-10T09:35:33;100757.97;;;9.15;81.06
32638;BME280;19045;52.268;10.506;2023-01-10T09:38:00;100764.84;;;8.82;83.45
32638;BME280;19045;52.268;10.506;2023-01-10T09:40:36;100762.94;;;8.43;86.13
32638;BME280;19045;52.268;10.506;2023-01-10T09:43:15;100769.44;;;8.01;88.57
32638;BME280;19045;52.268;10.506;2023-01-10T09:45:50;100763.06;;;9.00;82.54
32638;BME280;19045;52.268;10.506;2023-01-10T09:48:26;100771.38;;;10.60;77.75
32638;BME280;19045;52.268;10.506;2023-01-10T09:51:07;100778.31;;;12.06;68.20
32638;BME280;19045;52.268;10.506;2023-01-10T09:53:36;100789.75;;;10.29;74.62
32638;BME280;19045;52.268;10.506;2023-01-10T09:56:06;100789.81;;;9.11;80.28
32638;BME280;19045;52.268;10.506;2023-01-10T09:58:34;100794.66;;;7.82;87.22
32638;BME280;19045;52.268;10.506;2023-01-10T10:01:05;100802.47;;;7.53;89.88
32638;BME280;19045;52.268;10.506;2023-01-10T10:03:39;100801.19;;;7.26;91.24
32638;BME280;19045;52.268;10.506;2023-01-10T10:06:08;100808.81;;;7.11;92.82
32638;BME280;19045;52.268;10.506;2023-01-10T10:08:37;100820.94;;;6.95;93.67
32638;BME280;19045;52.268;10.506;2023-01-10T10:11:16;100816.69;;;6.88;94.83
32638;BME280;19045;52.268;10.506;2023-01-10T10:13:55;100816.47;;;6.71;96.19
32638;BME280;19045;52.268;10.506;2023-01-10T10:16:31;100817.66;;;6.75;96.65
32638;BME280;19045;52.268;10.506;2023-01-10T10:19:10;100820.03;;;6.83;95.91
32638;BME280;19045;52.268;10.506;2023-01-10T10:21:50;100811.88;;;6.78;96.17
32638;BME280;19045;52.268;10.506;2023-01-10T10:24:36;100802.31;;;6.70;96.35
32638;BME280;19045;52.268;10.506;2023-01-10T10:27:12;100806.31;;;6.80;96.46
32638;BME280;19045;52.268;10.506;2023-01-10T10:30:02;100813.88;;;6.64;96.99
32638;BME280;19045;52.268;10.506;2023-01-10T10:32:45;100821.38;;;6.56;97.70
32638;BME280;19045;52.268;10.506;2023-01-10T10:35:23;100820.25;;;6.63;97.53
32638;BME280;19045;52.268;10.506;2023-01-10T10:37:55;100826.25;;;6.59;96.94
32638;BME280;19045;52.268;10.506;2023-01-10T10:40:26;100822.09;;;6.63;96.04
32638;BME280;19045;52.268;10.506;2023-01-10T10:42:55;100827.44;;;6.63;95.59
32638;BME280;19045;52.268;10.506;2023-01-10T10:45:25;100821.13;;;6.57;95.83
32638;BME280;19045;52.268;10.506;2023-01-10T10:47:56;100819.28;;;6.58;96.25
32638;BME280;19045;52.268;10.506;2023-01-10T10:50:30;100812.47;;;6.62;95.94
32638;BME280;19045;52.268;10.506;2023-01-10T10:52:59;100820.16;;;6.70;95.81
32638;BME280;19045;52.268;10.506;2023-01-10T10:55:28;100815.44;;;6.72;95.86
32638;BME280;19045;52.268;10.506;2023-01-10T10:57:56;100814.84;;;6.70;95.21
32638;BME280;19045;52.268;10.506;2023-01-10T11:00:23;100820.41;;;6.68;94.50
32638;BME280;19045;52.268;10.506;2023-01-10T11:02:54;100823.44;;;6.72;94.50
32638;BME280;19045;52.268;10.506;2023-01-10T11:05:30;100821.44;;;6.67;94.54
32638;BME280;19045;52.268;10.506;2023-01-10T11:08:01;100835.97;;;6.71;94.75
32638;BME280;19045;52.268;10.506;2023-01-10T11:10:29;100838.28;;;6.68;94.49
32638;BME280;19045;52.268;10.506;2023-01-10T11:13:04;100839.47;;;6.72;95.01
32638;BME280;19045;52.268;10.506;2023-01-10T11:15:38;100829.75;;;6.78;94.25
32638;BME280;19045;52.268;10.506;2023-01-10T11:18:10;100833.75;;;6.87;94.98
32638;BME280;19045;52.268;10.506;2023-01-10T11:20:45;100829.84;;;6.89;94.30
32638;BME280;19045;52.268;10.506;2023-01-10T11:23:21;100828.41;;;6.87;93.74
32638;BME280;19045;52.268;10.506;2023-01-10T11:25:48;100833.22;;;6.96;94.47
32638;BME280;19045;52.268;10.506;2023-01-10T11:28:16;100835.81;;;7.03;93.62
32638;BME280;19045;52.268;10.506;2023-01-10T11:30:48;100826.56;;;7.05;92.65
32638;BME280;19045;52.268;10.506;2023-01-10T11:33:19;100836.25;;;7.00;93.14
32638;BME280;19045;52.268;10.506;2023-01-10T11:35:58;100841.09;;;6.91;93.64
32638;BME280;19045;52.268;10.506;2023-01-10T11:38:26;100839.47;;;6.90;93.71
32638;BME280;19045;52.268;10.506;2023-01-10T11:40:56;100835.97;;;6.90;93.63
32638;BME280;19045;52.268;10.506;2023-01-10T11:43:27;100839.47;;;6.90;93.42
32638;BME280;19045;52.268;10.506;2023-01-10T11:45:56;100839.69;;;6.89;94.26
32638;BME280;19045;52.268;10.506;2023-01-10T11:48:24;100838.34;;;6.98;93.61
32638;BME280;19045;52.268;10.506;2023-01-10T11:50:53;100838.50;;;7.03;92.79
32638;BME280;19045;52.268;10.506;2023-01-10T11:53:39;100833.31;;;7.08;92.62
32638;BME280;19045;52.268;10.506;2023-01-10T11:56:09;100822.28;;;8.75;90.78
32638;BME280;19045;52.268;10.506;2023-01-10T11:58:37;100820.81;;;10.25;74.89
32638;BME280;19045;52.268;10.506;2023-01-10T12:01:04;100821.84;;;10.41;74.36
32638;BME280;19045;52.268;10.506;2023-01-10T12:03:32;100821.13;;;9.22;79.01
32638;BME280;19045;52.268;10.506;2023-01-10T12:06:03;100822.09;;;8.42;82.53
32638;BME280;19045;52.268;10.506;2023-01-10T12:08:32;100817.19;;;7.74;85.77
32638;BME280;19045;52.268;10.506;2023-01-10T12:11:02;100823.06;;;7.94;87.89
32638;BME280;19045;52.268;10.506;2023-01-10T12:13:42;100813.88;;;8.13;85.11
32638;BME280;19045;52.268;10.506;2023-01-10T12:16:18;100817.06;;;8.57;83.67
32638;BME280;19045;52.268;10.506;2023-01-10T12:18:46;100817.75;;;8.29;83.64
32638;BME280;19045;52.268;10.506;2023-01-10T12:21:15;100812.03;;;8.49;82.89
32638;BME280;19045;52.268;10.506;2023-01-10T12:23:44;100817.59;;;8.82;81.03
32638;BME280;19045;52.268;10.506;2023-01-10T12:26:14;100812.63;;;8.62;80.74
32638;BME280;19045;52.268;10.506;2023-01-10T12:28:43;100814.16;;;8.47;82.56
32638;BME280;19045;52.268;10.506;2023-01-10T12:31:14;100820.75;;;8.21;83.21
32638;BME280;19045;52.268;10.506;2023-01-10T12:33:43;100826.34;;;8.08;84.00
32638;BME280;19045;52.268;10.506;2023-01-10T12:36:22;100821.94;;;8.25;84.53
32638;BME280;19045;52.268;10.506;2023-01-10T12:38:58;100822.41;;;8.45;82.50
32638;BME280;19045;52.268;10.506;2023-01-10T12:41:37;100828.66;;;8.04;83.47
32638;BME280;19045;52.268;10.506;2023-01-10T12:44:28;100825.22;;;7.74;83.96
32638;BME280;19045;52.268;10.506;2023-01-10T12:47:00;100830.28;;;7.64;85.32
32638;BME280;19045;52.268;10.506;2023-01-10T12:49:31;100821.44;;;7.52;86.29
32638;BME280;19045;52.268;10.506;2023-01-10T12:52:03;100819.34;;;7.54;86.85
32638;BME280;19045;52.268;10.506;2023-01-10T12:54:31;100823.50;;;7.50;87.72
32638;BME280;19045;52.268;10.506;2023-01-10T12:57:05;100824.97;;;7.46;87.78
32638;BME280;19045;52.268;10.506;2023-01-10T12:59:40;100832.78;;;7.47;88.50
32638;BME280;19045;52.268;10.506;2023-01-10T13:02:13;100827.59;;;7.52;89.01